Time;durP1;ratioP1;P1;durP2;ratioP2;P2;SDS_P1;SDS_P2;PMS_P1;PMS_P2;Temp;Humidity;BMP_temperature;BMP_pressure;BME280_temperature;BME280_humidity;BME280_pressure;Samples;Min_cycle;Max_cycle;Signal;HPM_P1;HPM_P2
2021/12/08 00:01:10;;;;;;;;;;;;;;;;;;5016879;28;19921;-83
2021/12/08 00:03:35;;;;;;;;;;;;;;;;;;5030901;28;19936;-84
2021/12/08 00:06:04;;;;;;;;;;;;;;;;;;5034221;28;19921;-85
2021/12/08 00:08:30;;;;;;;;;;;;;;;;;;5017365;28;20416;-84
2021/12/08 00:13:24;;;;;;;;;;;;;;;;;;5035185;28;20067;-83
2021/12/08 00:15:50;;;;;;;;;;;;;;;;;;5034666;28;19921;-83
2021/12/08 00:18:17;;;;;;;;;;;;;;;;;;4998075;28;20000;-84
2021/12/08 00:20:43;;;;;;;;;;;;;;;;;;5017018;28;20038;-82
2021/12/08 00:23:11;;;;;;;;;;;;;;;;;;5034466;28;20349;-84
2021/12/08 00:25:36;;;;;;;;;;;;;;;;;;4997080;28;20008;-85
2021/12/08 00:28:02;;;;;;;;;;;;;;;;;;5014994;28;20290;-81
2021/12/08 00:30:28;;;;;;;;;;;;;;;;;;5000120;28;19929;-84
2021/12/08 00:32:59;;;;;;;;;;;;;;;;;;5017178;28;19921;-83
2021/12/08 00:35:27;;;;;;;;;;;;;;;;;;5034626;28;20349;-84
2021/12/08 00:37:53;;;;;;;;;;;;;;;;;;5016775;28;19952;-86
2021/12/08 00:40:21;;;;;;;;;;;;;;;;;;5016610;28;20010;-83
2021/12/08 00:42:47;;;;;;;;;;;;;;;;;;5015045;28;19921;-85
2021/12/08 00:45:13;;;;;;;;;;;;;;;;;;5019627;28;20004;-82
2021/12/08 00:47:39;;;;;;;;;;;;;;;;;;5034172;28;19952;-83
2021/12/08 00:50:05;;;;;;;;;;;;;;;;;;5034587;28;20295;-84
2021/12/08 00:52:31;;;;;;;;;;;;;;;;;;5034202;28;19921;-83
2021/12/08 00:54:56;;;;;;;;;;;;;;;;;;5026309;28;20408;-84
2021/12/08 00:57:22;;;;;;;;;;;;;;;;;;5016972;28;19960;-83
2021/12/08 00:59:47;;;;;;;;;;;;;;;;;;5016309;28;19979;-84
2021/12/08 01:02:12;;;;;;;;;;;;;;;;;;5033997;28;19921;-79
2021/12/08 01:04:38;;;;;;;;;;;;;;;;;;5033911;28;19992;-80
2021/12/08 01:07:03;;;;;;;;;;;;;;;;;;5016132;28;19979;-81
2021/12/08 01:09:28;;;;;;;;;;;;;;;;;;5015993;28;19986;-83
2021/12/08 01:11:55;;;;;;;;;;;;;;;;;;5032521;28;19939;-82
2021/12/08 01:14:23;;;;;;;;;;;;;;;;;;5033593;28;20239;-84
2021/12/08 01:16:48;;;;;;;;;;;;;;;;;;5033772;28;19921;-84
2021/12/08 01:19:13;;;;;;;;;;;;;;;;;;5033541;28;20228;-84
2021/12/08 01:21:39;;;;;;;;;;;;;;;;;;5033749;28;20296;-84
2021/12/08 01:24:04;;;;;;;;;;;;;;;;;;5015577;28;19921;-83
2021/12/08 01:26:29;;;;;;;;;;;;;;;;;;5033427;28;19921;-84
2021/12/08 01:29:00;;;;;;;;;;;;;;;;;;5033253;28;20307;-84
2021/12/08 01:31:25;;;;;;;;;;;;;;;;;;5033860;28;19952;-85
2021/12/08 01:33:50;;;;;;;;;;;;;;;;;;5033920;28;20355;-80
2021/12/08 01:36:16;;;;;;;;;;;;;;;;;;5033340;28;19921;-84
2021/12/08 01:38:41;;;;;;;;;;;;;;;;;;5033568;28;19979;-82
2021/12/08 01:41:07;;;;;;;;;;;;;;;;;;5015905;28;20459;-83
2021/12/08 01:43:43;;;;;;;;;;;;;;;;;;5033417;28;19925;-83
2021/12/08 01:46:10;;;;;;;;;;;;;;;;;;5033073;28;19921;-83
2021/12/08 01:48:36;;;;;;;;;;;;;;;;;;5032945;28;19975;-83
2021/12/08 01:51:06;;;;;;;;;;;;;;;;;;5016228;28;19921;-83
2021/12/08 01:53:31;;;;;;;;;;;;;;;;;;5032854;28;19967;-83
2021/12/08 01:55:59;;;;;;;;;;;;;;;;;;5033836;28;19972;-82
2021/12/08 01:58:29;;;;;;;;;;;;;;;;;;5034551;28;20035;-83
2021/12/08 02:00:57;;;;;;;;;;;;;;;;;;5034766;28;19920;-82
2021/12/08 02:03:24;;;;;;;;;;;;;;;;;;5033166;28;20004;-81
2021/12/08 02:05:50;;;;;;;;;;;;;;;;;;5015342;28;20296;-82
2021/12/08 02:08:15;;;;;;;;;;;;;;;;;;5017804;28;19921;-81
2021/12/08 02:10:41;;;;;;;;;;;;;;;;;;5033285;28;19931;-82
2021/12/08 02:13:09;;;;;;;;;;;;;;;;;;5033273;28;20040;-81
2021/12/08 02:15:35;;;;;;;;;;;;;;;;;;5033372;28;19925;-82
2021/12/08 02:18:03;;;;;;;;;;;;;;;;;;5033120;28;20426;-81
2021/12/08 02:20:28;;;;;;;;;;;;;;;;;;5015770;28;19956;-82
2021/12/08 02:22:54;;;;;;;;;;;;;;;;;;5032785;28;19921;-83
2021/12/08 02:25:20;;;;;;;;;;;;;;;;;;5033104;28;20016;-84
2021/12/08 02:27:45;;;;;;;;;;;;;;;;;;5032854;28;19921;-85
2021/12/08 02:47:07;;;;;;;;;;;;;;;;;;5021328;28;19932;-83
2021/12/08 02:49:33;;;;;;;;;;;;;;;;;;5036550;28;19921;-84
2021/12/08 02:51:58;;;;;;;;;;;;;;;;;;5018980;28;19948;-84
2021/12/08 02:54:23;;;;;;;;;;;;;;;;;;5018711;28;20259;-80
2021/12/08 02:56:48;;;;;;;;;;;;;;;;;;5019356;28;19933;-84
2021/12/08 02:59:14;;;;;;;;;;;;;;;;;;5018811;28;20393;-83
2021/12/08 03:01:39;;;;;;;;;;;;;;;;;;5013410;28;20286;-83
2021/12/08 03:04:05;;;;;;;;;;;;;;;;;;5035658;28;19956;-83
2021/12/08 03:06:30;;;;;;;;;;;;;;;;;;5016665;28;20395;-82
2021/12/08 03:08:56;;;;;;;;;;;;;;;;;;5036033;28;20080;-82
2021/12/08 03:11:21;;;;;;;;;;;;;;;;;;5021303;28;20341;-83
2021/12/08 03:14:05;;;;;;;;;;;;;;;;;;4998199;28;20282;-84
2021/12/08 03:16:30;;;;;;;;;;;;;;;;;;5024110;28;19932;-84
2021/12/08 03:18:56;;;;;;;;;;;;;;;;;;5036130;28;19925;-82
2021/12/08 03:21:28;;;;;;;;;;;;;;;;;;5035321;28;20479;-83
2021/12/08 03:24:10;;;;;;;;;;;;;;;;;;5016228;28;19932;-83
2021/12/08 03:26:45;;;;;;;;;;;;;;;;;;5020399;28;19951;-82
2021/12/08 03:29:20;;;;;;;;;;;;;;;;;;5018463;28;19971;-84
2021/12/08 03:31:47;;;;;;;;;;;;;;;;;;5035641;28;19922;-83
2021/12/08 03:34:17;;;;;;;;;;;;;;;;;;5018432;28;19921;-83
2021/12/08 03:36:42;;;;;;;;;;;;;;;;;;5035143;28;21509;-83
2021/12/08 03:39:07;;;;;;;;;;;;;;;;;;5036032;28;20011;-84
2021/12/08 03:41:33;;;;;;;;;;;;;;;;;;5034648;28;19960;-83
2021/12/08 03:43:59;;;;;;;;;;;;;;;;;;5035519;28;19921;-83
2021/12/08 03:46:27;;;;;;;;;;;;;;;;;;5017838;28;19967;-83
2021/12/08 03:48:53;;;;;;;;;;;;;;;;;;5017817;28;20224;-81
2021/12/08 03:51:19;;;;;;;;;;;;;;;;;;5034791;28;19957;-82
2021/12/08 03:53:45;;;;;;;;;;;;;;;;;;5035115;28;19964;-84
2021/12/08 03:56:10;;;;;;;;;;;;;;;;;;5017448;28;19948;-83
2021/12/08 03:58:38;;;;;;;;;;;;;;;;;;5034769;28;19921;-83
2021/12/08 04:01:04;;;;;;;;;;;;;;;;;;5034905;28;19931;-83
2021/12/08 04:03:31;;;;;;;;;;;;;;;;;;5035279;28;19921;-84
2021/12/08 04:06:00;;;;;;;;;;;;;;;;;;5017809;28;19979;-85
2021/12/08 04:08:32;;;;;;;;;;;;;;;;;;5035415;28;19933;-84
2021/12/08 04:11:00;;;;;;;;;;;;;;;;;;5034646;28;19929;-85
2021/12/08 04:13:33;;;;;;;;;;;;;;;;;;5034272;28;19921;-84
2021/12/08 04:15:59;;;;;;;;;;;;;;;;;;5034475;28;19928;-82
2021/12/08 04:18:26;;;;;;;;;;;;;;;;;;5017235;28;19917;-83
2021/12/08 04:20:54;;;;;;;;;;;;;;;;;;5034467;28;19983;-85
2021/12/08 04:23:20;;;;;;;;;;;;;;;;;;5034627;28;20227;-85
2021/12/08 04:25:47;;;;;;;;;;;;;;;;;;5017142;28;19932;-83
2021/12/08 04:28:13;;;;;;;;;;;;;;;;;;5017195;28;20261;-84
2021/12/08 04:31:01;;;;;;;;;;;;;;;;;;4999848;28;19932;-85
2021/12/08 04:33:30;;;;;;;;;;;;;;;;;;5034066;28;19975;-84
2021/12/08 04:35:58;;;;;;;;;;;;;;;;;;5034552;28;19943;-84
2021/12/08 04:38:30;;;;;;;;;;;;;;;;;;5018264;28;19929;-82
2021/12/08 04:41:04;;;;;;;;;;;;;;;;;;5034554;28;20004;-84
2021/12/08 04:43:46;;;;;;;;;;;;;;;;;;5034283;28;19921;-83
2021/12/08 04:49:32;;;;;;;;;;;;;;;;;;5009901;28;19921;-84
2021/12/08 05:00:25;;;;;;;;;;;;;;;;;;5033244;28;19951;-83
2021/12/08 05:03:20;;;;;;;;;;;;;;;;;;5024644;28;19921;-84
2021/12/08 05:08:41;;;;;;;;;;;;;;;;;;5015242;28;19961;-83
2021/12/08 05:11:17;;;;;;;;;;;;;;;;;;5018430;28;20307;-82
2021/12/08 05:13:45;;;;;;;;;;;;;;;;;;5034028;28;19944;-84
2021/12/08 05:16:11;;;;;;;;;;;;;;;;;;5016148;28;19929;-84
2021/12/08 05:18:39;;;;;;;;;;;;;;;;;;5034152;28;19931;-84
2021/12/08 05:21:16;;;;;;;;;;;;;;;;;;5034036;28;19921;-83
2021/12/08 05:23:52;;;;;;;;;;;;;;;;;;5033835;28;19921;-83
2021/12/08 05:26:19;;;;;;;;;;;;;;;;;;4999877;28;20377;-82
2021/12/08 05:28:45;;;;;;;;;;;;;;;;;;5015718;28;19928;-83
2021/12/08 05:31:12;;;;;;;;;;;;;;;;;;5002552;28;20235;-83
2021/12/08 05:33:40;;;;;;;;;;;;;;;;;;5023631;28;19925;-83
2021/12/08 05:36:06;;;;;;;;;;;;;;;;;;5033529;28;19922;-83
2021/12/08 05:38:31;;;;;;;;;;;;;;;;;;5033239;28;19932;-84
2021/12/08 05:40:58;;;;;;;;;;;;;;;;;;5016399;28;19921;-83
2021/12/08 05:43:26;;;;;;;;;;;;;;;;;;5033688;28;19921;-83
2021/12/08 05:45:54;;;;;;;;;;;;;;;;;;5033469;28;19932;-83
2021/12/08 05:48:19;;;;;;;;;;;;;;;;;;5033873;28;19921;-82
2021/12/08 05:50:53;;;;;;;;;;;;;;;;;;5015969;28;19999;-84
2021/12/08 05:53:19;;;;;;;;;;;;;;;;;;5013647;28;19921;-83
2021/12/08 05:55:44;;;;;;;;;;;;;;;;;;5012908;28;19922;-83
2021/12/08 05:58:12;;;;;;;;;;;;;;;;;;5033357;28;20267;-83
2021/12/08 06:00:44;;;;;;;;;;;;;;;;;;5033263;28;19925;-83
2021/12/08 06:03:11;;;;;;;;;;;;;;;;;;5015914;28;19922;-83
2021/12/08 06:05:37;;;;;;;;;;;;;;;;;;5033304;28;19921;-84
2021/12/08 06:08:02;;;;;;;;;;;;;;;;;;5033617;28;20326;-83
2021/12/08 06:10:32;;;;;;;;;;;;;;;;;;5033744;28;19925;-83
2021/12/08 06:12:57;;;;;;;;;;;;;;;;;;5037536;28;19921;-82
2021/12/08 06:15:22;;;;;;;;;;;;;;;;;;5036538;28;20286;-83
2021/12/08 06:17:48;;;;;;;;;;;;;;;;;;5036811;28;19979;-83
2021/12/08 06:20:13;;;;;;;;;;;;;;;;;;5036913;28;19916;-83
2021/12/08 06:22:41;;;;;;;;;;;;;;;;;;5019155;28;20258;-84
2021/12/08 06:25:08;;;;;;;;;;;;;;;;;;5036838;28;20261;-83
2021/12/08 06:27:33;;;;;;;;;;;;;;;;;;5019472;28;20338;-82
2021/12/08 06:29:59;;;;;;;;;;;;;;;;;;5036605;28;19921;-82
2021/12/08 06:32:24;;;;;;;;;;;;;;;;;;5019400;28;19978;-82
2021/12/08 06:34:51;;;;;;;;;;;;;;;;;;5037115;28;19980;-83
2021/12/08 06:37:22;;;;;;;;;;;;;;;;;;5019379;28;20327;-83
2021/12/08 06:39:52;;;;;;;;;;;;;;;;;;5020017;28;19921;-83
2021/12/08 06:42:19;;;;;;;;;;;;;;;;;;5036658;28;20029;-83
2021/12/08 06:44:46;;;;;;;;;;;;;;;;;;5036566;28;19929;-84
2021/12/08 06:47:13;;;;;;;;;;;;;;;;;;5018579;28;20011;-82
2021/12/08 06:49:38;;;;;;;;;;;;;;;;;;5036618;28;19979;-82
2021/12/08 06:52:09;;;;;;;;;;;;;;;;;;5036247;28;19956;-82
2021/12/08 06:54:39;;;;;;;;;;;;;;;;;;5036670;28;19921;-83
2021/12/08 06:57:09;;;;;;;;;;;;;;;;;;5036509;28;19925;-83
2021/12/08 06:59:40;;;;;;;;;;;;;;;;;;5038273;28;19931;-83
2021/12/08 07:02:11;;;;;;;;;;;;;;;;;;5035599;28;19928;-83
2021/12/08 07:07:19;;;;;;;;;;;;;;;;;;5032516;28;19937;-82
2021/12/08 07:09:55;;;;;;;;;;;;;;;;;;5015174;28;20334;-80
2021/12/08 07:12:23;;;;;;;;;;;;;;;;;;5034059;28;19921;-81
2021/12/08 07:14:53;;;;;;;;;;;;;;;;;;5035885;28;19968;-80
2021/12/08 07:17:22;;;;;;;;;;;;;;;;;;5034012;28;19921;-80
2021/12/08 07:22:59;;;;;;;;;;;;;;;;;;4953545;28;19927;-80
2021/12/08 07:25:25;;;;;;;;;;;;;;;;;;4938956;28;19989;-81
2021/12/08 07:27:53;;;;;;;;;;;;;;;;;;4954798;29;19934;-81
2021/12/08 07:30:33;;;;;;;;;;;;;;;;;;4955550;28;19926;-81
2021/12/08 07:32:58;;;;;;;;;;;;;;;;;;4954658;29;19926;-81
2021/12/08 07:35:29;;;;;;;;;;;;;;;;;;4954488;29;19922;-81
2021/12/08 07:37:54;;;;;;;;;;;;;;;;;;4954118;29;20347;-81
2021/12/08 07:40:43;;;;;;;;;;;;;;;;;;4954117;28;19922;-81
2021/12/08 07:43:10;;;;;;;;;;;;;;;;;;4954329;28;20061;-81
2021/12/08 07:45:46;;;;;;;;;;;;;;;;;;4954668;29;19981;-80
2021/12/08 07:48:14;;;;;;;;;;;;;;;;;;4954431;29;19974;-81
2021/12/08 07:50:42;;;;;;;;;;;;;;;;;;4938209;29;19927;-81
2021/12/08 07:53:08;;;;;;;;;;;;;;;;;;4974506;28;19986;-81
2021/12/08 07:55:35;;;;;;;;;;;;;;;;;;5034448;28;19925;-81
2021/12/08 07:58:01;;;;;;;;;;;;;;;;;;5016908;28;20361;-81
2021/12/08 08:00:28;;;;;;;;;;;;;;;;;;5034747;28;19921;-80
2021/12/08 08:02:53;;;;;;;;;;;;;;;;;;5036951;28;20335;-81
2021/12/08 08:05:22;;;;;;;;;;;;;;;;;;5034922;28;19921;-80
2021/12/08 08:07:48;;;;;;;;;;;;;;;;;;4998080;28;19921;-79
2021/12/08 08:10:15;;;;;;;;;;;;;;;;;;5016735;28;19928;-81
2021/12/08 08:12:43;;;;;;;;;;;;;;;;;;5034448;28;20436;-81
2021/12/08 08:15:11;;;;;;;;;;;;;;;;;;5016301;28;19921;-81
2021/12/08 08:17:40;;;;;;;;;;;;;;;;;;5034863;28;20293;-81
2021/12/08 08:20:17;;;;;;;;;;;;;;;;;;5017992;28;20000;-81
2021/12/08 08:22:43;;;;;;;;;;;;;;;;;;5017752;28;19932;-81
2021/12/08 08:25:12;;;;;;;;;;;;;;;;;;5034021;28;19929;-82
2021/12/08 08:27:37;;;;;;;;;;;;;;;;;;5018784;28;20016;-82
2021/12/08 08:30:06;;;;;;;;;;;;;;;;;;5034321;28;20299;-81
2021/12/08 08:32:35;;;;;;;;;;;;;;;;;;5044176;28;19946;-81
2021/12/08 08:35:05;;;;;;;;;;;;;;;;;;5054516;28;20023;-80
2021/12/08 08:37:34;;;;;;;;;;;;;;;;;;5048634;28;19928;-82
2021/12/08 08:40:03;;;;;;;;;;;;;;;;;;4985115;28;20490;-82
2021/12/08 08:42:49;;;;;;;;;;;;;;;;;;5002158;28;19932;-83
2021/12/08 08:45:20;;;;;;;;;;;;;;;;;;5034060;28;19921;-82
2021/12/08 08:47:47;;;;;;;;;;;;;;;;;;5022336;28;19999;-83
2021/12/08 08:50:15;;;;;;;;;;;;;;;;;;5016101;28;20095;-83
2021/12/08 08:52:54;;;;;;;;;;;;;;;;;;5034456;28;19921;-83
2021/12/08 08:55:25;;;;;;;;;;;;;;;;;;4998109;28;19925;-83
2021/12/08 08:57:57;;;;;;;;;;;;;;;;;;5016600;28;19921;-83
2021/12/08 09:00:25;;;;;;;;;;;;;;;;;;5034127;28;19921;-83
2021/12/08 09:02:51;;;;;;;;;;;;;;;;;;5040594;28;19975;-83
2021/12/08 09:05:46;;;;;;;;;;;;;;;;;;5015425;28;19964;-82
2021/12/08 09:08:18;;;;;;;;;;;;;;;;;;5001931;28;20000;-83
2021/12/08 09:11:15;;;;;;;;;;;;;;;;;;5033610;28;19921;-82
2021/12/08 09:13:41;;;;;;;;;;;;;;;;;;5028056;28;19929;-82
2021/12/08 09:16:10;;;;;;;;;;;;;;;;;;5034209;28;19922;-83
2021/12/08 09:18:48;;;;;;;;;;;;;;;;;;5022168;28;19943;-82
2021/12/08 09:21:17;;;;;;;;;;;;;;;;;;5034095;28;19970;-82
2021/12/08 09:23:48;;;;;;;;;;;;;;;;;;5032890;28;19932;-83
2021/12/08 09:26:21;;;;;;;;;;;;;;;;;;5033951;28;19921;-82
2021/12/08 09:28:52;;;;;;;;;;;;;;;;;;5017083;28;19987;-83
2021/12/08 09:31:23;;;;;;;;;;;;;;;;;;5033845;28;19928;-82
2021/12/08 09:33:53;;;;;;;;;;;;;;;;;;5016840;28;20012;-81
2021/12/08 09:36:19;;;;;;;;;;;;;;;;;;5033501;28;19931;-81
2021/12/08 09:39:09;;;;;;;;;;;;;;;;;;5015059;28;19975;-83
2021/12/08 09:41:37;;;;;;;;;;;;;;;;;;5032595;28;19921;-83
2021/12/08 09:44:13;;;;;;;;;;;;;;;;;;5014309;28;19921;-83
2021/12/08 09:46:42;;;;;;;;;;;;;;;;;;5015071;28;19964;-81
2021/12/08 09:49:07;;;;;;;;;;;;;;;;;;5024404;28;19921;-81
2021/12/08 09:51:33;;;;;;;;;;;;;;;;;;5016468;28;19929;-82
2021/12/08 09:53:58;;;;;;;;;;;;;;;;;;5015999;28;19961;-82
2021/12/08 09:56:24;;;;;;;;;;;;;;;;;;5032607;28;19921;-82
2021/12/08 09:58:49;;;;;;;;;;;;;;;;;;5027550;28;19963;-81
2021/12/08 10:01:19;;;;;;;;;;;;;;;;;;5026557;28;19956;-85
2021/12/08 10:03:48;;;;;;;;;;;;;;;;;;5039117;28;19929;-82
2021/12/08 10:06:17;;;;;;;;;;;;;;;;;;5036467;28;20350;-83
2021/12/08 10:08:42;;;;;;;;;;;;;;;;;;5038730;28;20015;-81
2021/12/08 10:11:20;;;;;;;;;;;;;;;;;;5038768;28;20306;-83
2021/12/08 10:13:46;;;;;;;;;;;;;;;;;;5040981;28;19920;-82
2021/12/08 10:16:12;;;;;;;;;;;;;;;;;;5041712;28;19921;-83
2021/12/08 10:18:37;;;;;;;;;;;;;;;;;;5044852;28;20354;-88
2021/12/08 10:21:03;;;;;;;;;;;;;;;;;;5026935;28;20007;-86
2021/12/08 10:23:30;;;;;;;;;;;;;;;;;;5042732;28;19940;-87
2021/12/08 10:25:59;;;;;;;;;;;;;;;;;;5046066;28;20019;-88
2021/12/08 10:28:28;;;;;;;;;;;;;;;;;;5042411;28;19921;-88
2021/12/08 10:31:04;;;;;;;;;;;;;;;;;;5044032;28;19932;-89
2021/12/08 10:33:44;;;;;;;;;;;;;;;;;;5043513;28;20266;-86
2021/12/08 10:36:23;;;;;;;;;;;;;;;;;;5050432;28;19921;-85
2021/12/08 10:38:48;;;;;;;;;;;;;;;;;;5043801;28;19925;-85
2021/12/08 10:41:13;;;;;;;;;;;;;;;;;;5044950;28;20000;-85
2021/12/08 10:43:38;;;;;;;;;;;;;;;;;;5026298;28;19994;-86
2021/12/08 10:46:07;;;;;;;;;;;;;;;;;;5043445;28;19944;-85
2021/12/08 10:48:38;;;;;;;;;;;;;;;;;;5046562;28;19924;-85
2021/12/08 10:56:36;;;;;;;;;;;;;;;;;;5045267;28;19932;-85
2021/12/08 10:59:01;;;;;;;;;;;;;;;;;;5032014;28;19921;-87
2021/12/08 11:01:26;;;;;;;;;;;;;;;;;;5056172;28;20249;-86
2021/12/08 11:04:07;;;;;;;;;;;;;;;;;;5046709;28;19996;-87
2021/12/08 11:06:33;;;;;;;;;;;;;;;;;;4994465;28;20295;-86
2021/12/08 11:08:59;;;;;;;;;;;;;;;;;;4998935;28;20060;-85
2021/12/08 11:11:29;;;;;;;;;;;;;;;;;;5033093;28;20027;-86
2021/12/08 11:13:55;;;;;;;;;;;;;;;;;;5018860;28;20078;-86
2021/12/08 11:16:20;;;;;;;;;;;;;;;;;;5018429;28;19947;-85
2021/12/08 11:18:47;;;;;;;;;;;;;;;;;;5036246;28;20326;-86
2021/12/08 11:21:18;;;;;;;;;;;;;;;;;;5036087;28;20254;-85
2021/12/08 11:26:14;;;;;;;;;;;;;;;;;;5035241;28;19921;-85
2021/12/08 11:28:40;;;;;;;;;;;;;;;;;;5035903;28;20011;-86
2021/12/08 11:31:07;;;;;;;;;;;;;;;;;;5035668;28;20017;-84
2021/12/08 11:33:33;;;;;;;;;;;;;;;;;;5036196;28;19933;-86
2021/12/08 11:36:17;;;;;;;;;;;;;;;;;;5035868;28;20258;-86
2021/12/08 11:38:48;;;;;;;;;;;;;;;;;;5040870;28;19921;-86
2021/12/08 11:41:27;;;;;;;;;;;;;;;;;;5039792;28;19921;-85
2021/12/08 11:43:56;;;;;;;;;;;;;;;;;;4998941;28;20434;-87
2021/12/08 11:46:22;;;;;;;;;;;;;;;;;;5039449;28;20411;-87
2021/12/08 11:48:54;;;;;;;;;;;;;;;;;;5002046;28;19929;-86
2021/12/08 11:51:19;;;;;;;;;;;;;;;;;;5038628;28;20112;-86
2021/12/08 11:53:47;;;;;;;;;;;;;;;;;;5037999;28;19947;-88
2021/12/08 11:56:33;;;;;;;;;;;;;;;;;;5018659;28;20016;-87
2021/12/08 11:58:59;;;;;;;;;;;;;;;;;;5032283;28;19916;-85
2021/12/08 12:01:25;;;;;;;;;;;;;;;;;;5054427;28;20007;-84
2021/12/08 12:03:50;;;;;;;;;;;;;;;;;;5043965;28;19979;-84
2021/12/08 12:06:17;;;;;;;;;;;;;;;;;;5043345;28;19920;-85
2021/12/08 12:08:46;;;;;;;;;;;;;;;;;;5037907;28;19920;-85
2021/12/08 12:11:11;;;;;;;;;;;;;;;;;;5015620;28;20286;-86
2021/12/08 12:13:37;;;;;;;;;;;;;;;;;;5034278;28;19932;-86
2021/12/08 12:16:02;;;;;;;;;;;;;;;;;;5015948;28;19921;-86
2021/12/08 12:18:31;;;;;;;;;;;;;;;;;;5016759;28;20341;-86
2021/12/08 12:21:22;;;;;;;;;;;;;;;;;;5034005;28;19921;-86
2021/12/08 12:24:06;;;;;;;;;;;;;;;;;;5010773;28;20366;-86
2021/12/08 12:26:54;;;;;;;;;;;;;;;;;;5033909;28;19936;-86
2021/12/08 12:29:26;;;;;;;;;;;;;;;;;;5007034;28;19928;-86
2021/12/08 12:31:54;;;;;;;;;;;;;;;;;;5020817;28;19956;-86
2021/12/08 12:34:26;;;;;;;;;;;;;;;;;;5034407;28;19921;-86
2021/12/08 12:37:14;;;;;;;;;;;;;;;;;;5017413;28;19929;-87
2021/12/08 12:40:07;;;;;;;;;;;;;;;;;;5012866;28;19964;-86
2021/12/08 12:42:43;;;;;;;;;;;;;;;;;;5015663;28;19977;-86
2021/12/08 12:45:12;;;;;;;;;;;;;;;;;;5034502;28;19925;-86
2021/12/08 12:47:38;;;;;;;;;;;;;;;;;;5033977;28;20258;-86
2021/12/08 12:50:29;;;;;;;;;;;;;;;;;;5016488;28;19921;-86
2021/12/08 12:52:55;;;;;;;;;;;;;;;;;;5031525;28;19925;-86
2021/12/08 12:55:24;;;;;;;;;;;;;;;;;;5032873;28;20266;-86
2021/12/08 12:58:09;;;;;;;;;;;;;;;;;;5028679;28;19921;-86
2021/12/08 13:00:39;;;;;;;;;;;;;;;;;;5015033;28;20262;-86
2021/12/08 13:03:04;;;;;;;;;;;;;;;;;;5016816;28;20363;-86
2021/12/08 13:05:45;;;;;;;;;;;;;;;;;;5016986;28;19917;-86
2021/12/08 13:08:11;;;;;;;;;;;;;;;;;;5013902;28;20016;-85
2021/12/08 13:10:42;;;;;;;;;;;;;;;;;;5033972;28;20047;-86
2021/12/08 13:13:11;;;;;;;;;;;;;;;;;;5033081;28;19978;-86
2021/12/08 13:15:37;;;;;;;;;;;;;;;;;;5007692;28;19921;-85
2021/12/08 13:18:06;;;;;;;;;;;;;;;;;;5040578;28;19978;-86
2021/12/08 13:20:35;;;;;;;;;;;;;;;;;;5033226;28;19921;-85
2021/12/08 13:23:02;;;;;;;;;;;;;;;;;;5029694;28;19921;-85
2021/12/08 13:25:29;;;;;;;;;;;;;;;;;;5033627;28;20329;-85
2021/12/08 13:27:56;;;;;;;;;;;;;;;;;;5015514;28;19929;-86
2021/12/08 13:30:31;;;;;;;;;;;;;;;;;;5036913;28;19932;-86
2021/12/08 13:33:09;;;;;;;;;;;;;;;;;;5033439;28;19932;-86
2021/12/08 13:35:35;;;;;;;;;;;;;;;;;;5024549;28;19932;-86
2021/12/08 13:38:00;;;;;;;;;;;;;;;;;;5027901;28;20017;-85
2021/12/08 13:40:44;;;;;;;;;;;;;;;;;;5024480;28;20012;-86
2021/12/08 13:43:10;;;;;;;;;;;;;;;;;;5019037;28;19921;-85
2021/12/08 13:45:42;;;;;;;;;;;;;;;;;;5034296;28;19940;-86
2021/12/08 13:48:08;;;;;;;;;;;;;;;;;;5033243;28;19980;-85
2021/12/08 13:50:34;;;;;;;;;;;;;;;;;;5040302;28;20015;-85
2021/12/08 13:53:06;;;;;;;;;;;;;;;;;;5018803;28;19928;-85
2021/12/08 13:55:32;;;;;;;;;;;;;;;;;;5043121;28;20022;-86
2021/12/08 13:58:07;;;;;;;;;;;;;;;;;;5032977;28;20109;-86
2021/12/08 14:00:34;;;;;;;;;;;;;;;;;;5022747;28;19975;-86
2021/12/08 14:03:21;;;;;;;;;;;;;;;;;;4978808;28;20327;-86
2021/12/08 14:05:59;;;;;;;;;;;;;;;;;;5031825;28;19925;-86
2021/12/08 14:08:26;;;;;;;;;;;;;;;;;;5038122;28;20388;-86
2021/12/08 14:10:52;;;;;;;;;;;;;;;;;;5022529;28;20354;-85
2021/12/08 14:13:19;;;;;;;;;;;;;;;;;;5015669;28;19921;-86
2021/12/08 14:15:58;;;;;;;;;;;;;;;;;;5032220;28;19921;-86
2021/12/08 14:18:26;;;;;;;;;;;;;;;;;;5021103;28;19939;-85
2021/12/08 14:20:55;;;;;;;;;;;;;;;;;;5017062;28;19929;-86
2021/12/08 14:23:21;;;;;;;;;;;;;;;;;;5015524;28;19932;-86
2021/12/08 14:25:51;;;;;;;;;;;;;;;;;;5033868;28;19994;-86
2021/12/08 14:28:41;;;;;;;;;;;;;;;;;;5019549;28;20354;-85
2021/12/08 14:31:07;;;;;;;;;;;;;;;;;;5043146;28;19921;-86
2021/12/08 14:33:35;;;;;;;;;;;;;;;;;;5023836;28;20389;-84
2021/12/08 14:36:01;;;;;;;;;;;;;;;;;;5035167;28;19932;-85
2021/12/08 14:38:27;;;;;;;;;;;;;;;;;;5037005;28;20024;-86
2021/12/08 14:40:52;;;;;;;;;;;;;;;;;;5028150;28;19960;-85
2021/12/08 14:43:24;;;;;;;;;;;;;;;;;;5036881;28;19921;-85
2021/12/08 14:45:53;;;;;;;;;;;;;;;;;;5036987;28;19932;-86
2021/12/08 14:48:18;;;;;;;;;;;;;;;;;;5032340;28;19925;-86
2021/12/08 14:50:44;;;;;;;;;;;;;;;;;;5035691;28;19932;-85
2021/12/08 14:53:12;;;;;;;;;;;;;;;;;;5025701;28;19929;-85
2021/12/08 14:55:40;;;;;;;;;;;;;;;;;;5023900;28;20369;-86
2021/12/08 14:58:05;;;;;;;;;;;;;;;;;;5019161;28;19918;-86
2021/12/08 15:00:33;;;;;;;;;;;;;;;;;;5024170;28;20015;-87
2021/12/08 15:03:11;;;;;;;;;;;;;;;;;;5035356;28;19936;-86
2021/12/08 15:05:39;;;;;;;;;;;;;;;;;;5026198;28;19921;-85
2021/12/08 15:08:17;;;;;;;;;;;;;;;;;;5039588;28;19922;-86
2021/12/08 15:10:43;;;;;;;;;;;;;;;;;;5036990;28;19923;-86
2021/12/08 15:13:20;;;;;;;;;;;;;;;;;;5034133;28;19976;-85
2021/12/08 15:15:46;;;;;;;;;;;;;;;;;;4996514;28;20016;-86
2021/12/08 15:18:12;;;;;;;;;;;;;;;;;;5000286;28;19928;-85
2021/12/08 15:20:43;;;;;;;;;;;;;;;;;;5000285;28;19925;-86
2021/12/08 15:23:13;;;;;;;;;;;;;;;;;;4983347;28;20266;-85
2021/12/08 15:25:46;;;;;;;;;;;;;;;;;;4999752;28;19973;-86
2021/12/08 15:28:14;;;;;;;;;;;;;;;;;;5018954;28;20337;-85
2021/12/08 15:30:49;;;;;;;;;;;;;;;;;;5036791;28;19968;-85
2021/12/08 15:33:15;;;;;;;;;;;;;;;;;;5032707;28;20289;-86
2021/12/08 15:35:40;;;;;;;;;;;;;;;;;;5035471;28;19921;-85
2021/12/08 15:38:12;;;;;;;;;;;;;;;;;;5035268;28;19921;-86
2021/12/08 15:40:41;;;;;;;;;;;;;;;;;;5001729;28;19936;-86
2021/12/08 15:43:08;;;;;;;;;;;;;;;;;;5034622;28;19940;-86
2021/12/08 15:45:35;;;;;;;;;;;;;;;;;;5035356;28;19925;-85
2021/12/08 15:48:00;;;;;;;;;;;;;;;;;;5023453;28;19964;-86
2021/12/08 15:50:27;;;;;;;;;;;;;;;;;;5034961;28;19952;-86
2021/12/08 15:52:57;;;;;;;;;;;;;;;;;;5035714;28;19928;-85
2021/12/08 15:55:26;;;;;;;;;;;;;;;;;;5035847;28;19971;-85
2021/12/08 15:58:10;;;;;;;;;;;;;;;;;;5034552;28;19921;-86
2021/12/08 16:00:40;;;;;;;;;;;;;;;;;;5034798;28;19948;-85
2021/12/08 16:03:06;;;;;;;;;;;;;;;;;;5034989;28;19921;-86
2021/12/08 16:05:33;;;;;;;;;;;;;;;;;;5000321;28;20388;-85
2021/12/08 16:08:00;;;;;;;;;;;;;;;;;;5017507;28;19936;-86
2021/12/08 16:10:30;;;;;;;;;;;;;;;;;;5016927;28;19921;-87
2021/12/08 16:12:55;;;;;;;;;;;;;;;;;;5035374;28;20341;-87
2021/12/08 16:15:42;;;;;;;;;;;;;;;;;;5038320;28;19960;-87
2021/12/08 16:18:18;;;;;;;;;;;;;;;;;;5035478;28;19921;-88
2021/12/08 16:20:43;;;;;;;;;;;;;;;;;;5017738;28;20385;-87
2021/12/08 16:23:09;;;;;;;;;;;;;;;;;;5036761;28;19921;-88
2021/12/08 16:25:34;;;;;;;;;;;;;;;;;;5034061;28;20014;-88
2021/12/08 16:28:03;;;;;;;;;;;;;;;;;;5038316;28;20027;-87
2021/12/08 16:30:30;;;;;;;;;;;;;;;;;;5018868;28;19925;-88
2021/12/08 16:32:58;;;;;;;;;;;;;;;;;;5033844;28;19921;-88
2021/12/08 16:35:25;;;;;;;;;;;;;;;;;;5032390;28;19921;-85
2021/12/08 16:37:51;;;;;;;;;;;;;;;;;;5034674;28;19921;-86
2021/12/08 16:43:00;;;;;;;;;;;;;;;;;;5034645;28;19921;-88
2021/12/08 16:45:31;;;;;;;;;;;;;;;;;;5023804;28;20481;-85
2021/12/08 16:47:56;;;;;;;;;;;;;;;;;;5017264;28;19932;-85
2021/12/08 16:50:25;;;;;;;;;;;;;;;;;;5034091;28;19921;-85
2021/12/08 16:52:51;;;;;;;;;;;;;;;;;;5035114;28;19990;-87
2021/12/08 16:55:20;;;;;;;;;;;;;;;;;;5034147;28;20533;-86
2021/12/08 16:57:49;;;;;;;;;;;;;;;;;;5017495;28;20342;-87
2021/12/08 17:00:15;;;;;;;;;;;;;;;;;;5017998;28;19925;-86
2021/12/08 17:02:50;;;;;;;;;;;;;;;;;;5045482;28;19936;-89
2021/12/08 17:05:15;;;;;;;;;;;;;;;;;;5036742;28;19940;-83
2021/12/08 17:07:41;;;;;;;;;;;;;;;;;;5016610;28;20350;-85
2021/12/08 17:10:07;;;;;;;;;;;;;;;;;;5032279;28;20361;-83
2021/12/08 17:12:32;;;;;;;;;;;;;;;;;;5032583;28;19921;-88
2021/12/08 17:14:57;;;;;;;;;;;;;;;;;;5034486;28;19921;-85
2021/12/08 17:17:25;;;;;;;;;;;;;;;;;;5033514;28;19989;-84
2021/12/08 17:19:54;;;;;;;;;;;;;;;;;;5033274;28;19931;-84
2021/12/08 17:22:19;;;;;;;;;;;;;;;;;;5018005;28;20254;-86
2021/12/08 17:24:45;;;;;;;;;;;;;;;;;;4999183;28;19928;-85
2021/12/08 17:27:12;;;;;;;;;;;;;;;;;;5009795;28;19932;-86
2021/12/08 17:29:38;;;;;;;;;;;;;;;;;;5032116;28;19929;-87
2021/12/08 17:32:04;;;;;;;;;;;;;;;;;;4998494;28;19983;-87
2021/12/08 17:34:29;;;;;;;;;;;;;;;;;;5032815;28;20450;-86
2021/12/08 17:36:54;;;;;;;;;;;;;;;;;;5014828;28;19960;-86
2021/12/08 17:39:21;;;;;;;;;;;;;;;;;;5032295;28;19960;-85
2021/12/08 17:41:48;;;;;;;;;;;;;;;;;;5033073;28;19967;-87
2021/12/08 17:44:25;;;;;;;;;;;;;;;;;;5014523;28;20032;-87
2021/12/08 17:47:12;;;;;;;;;;;;;;;;;;5030778;28;19917;-88
2021/12/08 17:50:18;;;;;;;;;;;;;;;;;;4998643;28;19932;-87